createdAt,value
2019-02-08T00:00:19.571Z,102184.21
2019-02-08T00:03:22.712Z,102190.13
2019-02-08T00:06:25.918Z,102193.39
2019-02-08T00:09:28.970Z,102200.17
2019-02-08T00:12:32.067Z,102198.74
2019-02-08T00:15:35.139Z,102200.19
2019-02-08T00:18:38.260Z,102201.44
2019-02-08T00:21:41.343Z,102200.91
2019-02-08T00:24:44.432Z,102203.38
2019-02-08T00:27:47.535Z,102207.21
2019-02-08T00:30:50.631Z,102206.29
2019-02-08T00:33:53.831Z,102205.58
2019-02-08T00:36:57.002Z,102209.90
2019-02-08T00:40:00.185Z,102205.14
2019-02-08T00:43:03.206Z,102204.58
2019-02-08T00:46:06.394Z,102205.76
2019-02-08T00:49:09.482Z,102210.90
2019-02-08T00:52:12.574Z,102216.56
2019-02-08T00:55:15.697Z,102223.72
2019-02-08T00:58:18.864Z,102222.68
2019-02-08T01:01:22.067Z,102228.87
2019-02-08T01:04:25.207Z,102228.64
2019-02-08T01:07:28.339Z,102221.95
2019-02-08T01:10:31.491Z,102213.21
2019-02-08T01:13:34.585Z,102209.39
2019-02-08T01:16:37.715Z,102208.57
2019-02-08T01:19:40.816Z,102208.55
2019-02-08T01:22:43.926Z,102211.07
2019-02-08T01:25:47.100Z,102209.90
2019-02-08T01:28:50.195Z,102216.63
2019-02-08T01:31:53.287Z,102224.13
2019-02-08T01:34:56.355Z,102220.23
2019-02-08T01:37:59.489Z,102216.23
2019-02-08T01:41:02.651Z,102228.28
2019-02-08T01:44:05.751Z,102227.54
2019-02-08T01:47:08.835Z,102230.15
2019-02-08T01:50:15.432Z,102225.03
2019-02-08T01:53:18.599Z,102228.54
2019-02-08T01:56:21.704Z,102229.17
2019-02-08T01:59:24.778Z,102217.76
2019-02-08T02:02:27.855Z,102219.10
2019-02-08T02:05:31.009Z,102220.31
2019-02-08T02:08:34.086Z,102221.41
2019-02-08T02:11:37.172Z,102224.18
2019-02-08T02:14:40.363Z,102221.34
2019-02-08T02:17:43.431Z,102224.54
2019-02-08T02:20:46.495Z,102219.70
2019-02-08T02:23:55.965Z,102220.58
2019-02-08T02:26:52.714Z,102216.58
2019-02-08T02:29:55.811Z,102208.48
2019-02-08T02:32:58.898Z,102216.01
2019-02-08T02:36:02.000Z,102215.99
2019-02-08T02:39:07.756Z,102221.48
2019-02-08T02:42:10.947Z,102225.22
2019-02-08T02:45:16.656Z,102225.59
2019-02-08T02:48:19.811Z,102222.96
2019-02-08T02:51:22.983Z,102209.08
2019-02-08T02:54:26.059Z,102208.64
2019-02-08T02:57:29.177Z,102207.66
2019-02-08T03:00:35.515Z,102208.47
2019-02-08T03:03:38.636Z,102212.69
2019-02-08T03:06:41.724Z,102206.88
2019-02-08T03:09:44.826Z,102206.13
2019-02-08T03:12:47.927Z,102202.40
2019-02-08T03:15:51.096Z,102205.71
2019-02-08T03:18:54.186Z,102203.59
2019-02-08T03:21:57.291Z,102201.92
2019-02-08T03:25:00.363Z,102200.43
2019-02-08T03:28:03.471Z,102202.33
2019-02-08T03:31:06.613Z,102204.31
2019-02-08T03:34:09.748Z,102200.80
2019-02-08T03:37:12.846Z,102204.23
2019-02-08T03:40:18.584Z,102203.03
2019-02-08T03:43:21.705Z,102201.23
2019-02-08T03:46:24.763Z,102200.39
2019-02-08T03:49:27.870Z,102202.43
2019-02-08T03:52:30.951Z,102208.86
2019-02-08T03:55:34.043Z,102205.04
2019-02-08T03:58:37.107Z,102206.89
2019-02-08T04:01:40.242Z,102202.37
2019-02-08T04:04:43.329Z,102200.12
2019-02-08T04:07:46.418Z,102198.06
2019-02-08T04:10:49.522Z,102195.59
2019-02-08T04:13:52.615Z,102191.90
2019-02-08T04:16:55.707Z,102194.10
2019-02-08T04:19:58.782Z,102190.80
2019-02-08T04:23:01.905Z,102193.27
2019-02-08T04:26:05.083Z,102196.97
2019-02-08T04:29:08.148Z,102196.00
2019-02-08T04:32:11.240Z,102191.32
2019-02-08T04:35:14.352Z,102196.71
2019-02-08T04:38:18.544Z,102200.80
2019-02-08T04:41:20.518Z,102196.20
2019-02-08T04:44:23.632Z,102194.70
2019-02-08T04:47:26.707Z,102196.03
2019-02-08T04:50:29.832Z,102192.23
2019-02-08T04:53:32.995Z,102193.46
2019-02-08T04:56:36.098Z,102196.23
2019-02-08T04:59:39.179Z,102197.42
2019-02-08T05:02:42.291Z,102193.90
2019-02-08T05:05:45.434Z,102189.10
2019-02-08T05:08:48.467Z,102182.25
2019-02-08T05:11:51.560Z,102186.32
2019-02-08T05:14:54.650Z,102194.70
2019-02-08T05:17:57.737Z,102189.05
2019-02-08T05:21:00.839Z,102187.14
2019-02-08T05:24:03.912Z,102186.63
2019-02-08T05:27:06.979Z,102183.49
2019-02-08T05:30:15.912Z,102188.34
2019-02-08T05:33:19.027Z,102184.28
2019-02-08T05:36:22.147Z,102193.71
2019-02-08T05:39:25.350Z,102193.76
2019-02-08T05:42:28.412Z,102202.86
2019-02-08T05:45:31.502Z,102187.93
2019-02-08T05:48:34.604Z,102186.47
2019-02-08T05:51:37.708Z,102192.34
2019-02-08T05:54:40.787Z,102194.71
2019-02-08T05:57:43.891Z,102196.65
2019-02-08T06:00:51.007Z,102196.54
2019-02-08T06:03:54.154Z,102197.20
2019-02-08T06:06:57.259Z,102197.04
2019-02-08T06:10:00.352Z,102192.51
2019-02-08T06:13:03.439Z,102187.80
2019-02-08T06:16:06.512Z,102187.26
2019-02-08T06:19:09.609Z,102181.95
2019-02-08T06:22:12.719Z,102181.07
2019-02-08T06:25:15.953Z,102180.83
2019-02-08T06:28:19.084Z,102180.97
2019-02-08T06:31:22.176Z,102180.02
2019-02-08T06:34:25.280Z,102184.32
2019-02-08T06:37:28.354Z,102184.22
2019-02-08T06:40:31.985Z,102186.43
2019-02-08T06:43:35.060Z,102188.27
2019-02-08T06:46:38.152Z,102196.27
2019-02-08T06:49:41.372Z,102200.60
2019-02-08T06:52:44.541Z,102192.74
2019-02-08T06:55:47.644Z,102195.82
2019-02-08T06:58:54.902Z,102193.88
2019-02-08T07:02:04.094Z,102197.85
2019-02-08T07:05:27.079Z,102198.96
2019-02-08T07:08:36.289Z,102198.18
2019-02-08T07:11:48.479Z,102200.18
2019-02-08T07:14:57.240Z,102200.56
2019-02-08T07:18:05.624Z,102204.40
2019-02-08T07:21:12.973Z,102205.32
2019-02-08T07:24:25.117Z,102199.68
2019-02-08T07:27:37.461Z,102208.65
2019-02-08T07:30:45.762Z,102206.85
2019-02-08T07:33:55.048Z,102201.28
2019-02-08T07:37:03.287Z,102198.85
2019-02-08T07:40:14.824Z,102204.71
2019-02-08T07:43:23.091Z,102208.29
2019-02-08T07:46:37.399Z,102203.04
2019-02-08T07:49:45.682Z,102204.59
2019-02-08T07:52:54.208Z,102206.90
2019-02-08T07:56:04.483Z,102212.10
2019-02-08T08:01:13.907Z,102210.63
2019-02-08T08:04:27.067Z,102205.09
2019-02-08T08:07:35.340Z,102214.13
2019-02-08T08:10:45.455Z,102215.67
2019-02-08T08:13:52.704Z,102219.77
2019-02-08T08:17:02.908Z,102222.09
2019-02-08T08:20:48.256Z,102214.11
2019-02-08T08:24:00.412Z,102204.75
2019-02-08T08:27:07.785Z,102207.15
2019-02-08T08:30:22.336Z,102207.42
2019-02-08T08:33:33.971Z,102202.70
2019-02-08T08:36:53.212Z,102192.25
2019-02-08T08:40:05.256Z,102193.95
2019-02-08T08:45:31.923Z,102192.21
2019-02-08T08:51:08.929Z,102178.96
2019-02-08T08:54:27.942Z,102172.43
2019-02-08T08:57:48.983Z,102167.81
2019-02-08T09:01:02.348Z,102162.49
2019-02-08T09:04:49.053Z,102164.74
2019-02-08T09:08:02.067Z,102172.89
2019-02-08T09:11:46.537Z,102169.47
2019-02-08T09:15:05.598Z,102170.77
2019-02-08T09:18:20.080Z,102173.84
2019-02-08T09:21:34.403Z,102173.17
2019-02-08T09:24:52.447Z,102168.37
2019-02-08T09:28:18.815Z,102155.07
2019-02-08T09:33:37.803Z,102164.42
2019-02-08T09:41:02.202Z,102162.48
2019-02-08T09:44:16.504Z,102154.90
2019-02-08T09:47:30.313Z,102152.45
2019-02-08T09:51:00.175Z,102150.52
2019-02-08T09:54:19.971Z,102150.03
2019-02-08T09:57:33.846Z,102149.14
2019-02-08T10:00:51.767Z,102143.20
2019-02-08T10:06:42.824Z,102138.82
2019-02-08T10:09:56.920Z,102140.59
2019-02-08T10:13:16.088Z,102142.76
2019-02-08T10:16:41.986Z,102135.14
2019-02-08T10:19:57.998Z,102121.60
2019-02-08T10:23:44.876Z,102118.88
2019-02-08T10:27:02.673Z,102112.04
2019-02-08T10:30:22.672Z,102108.47
2019-02-08T10:34:39.984Z,102100.16
2019-02-08T10:37:54.043Z,102101.28
2019-02-08T10:41:30.969Z,102094.94
2019-02-08T10:44:50.564Z,102086.83
2019-02-08T10:50:08.879Z,102088.60
2019-02-08T10:53:24.851Z,102083.58
2019-02-08T10:57:15.927Z,102076.14
2019-02-08T11:01:31.820Z,102073.88
2019-02-08T11:05:49.619Z,102076.36
2019-02-08T11:09:07.535Z,102059.90
2019-02-08T11:12:36.344Z,102055.44
2019-02-08T11:16:06.131Z,102059.34
2019-02-08T11:19:16.938Z,102059.83
2019-02-08T11:22:20.027Z,102052.21
2019-02-08T11:25:23.095Z,102048.81
2019-02-08T11:28:26.198Z,102046.64
2019-02-08T11:31:29.306Z,102039.17
2019-02-08T11:34:32.372Z,102027.23
2019-02-08T11:37:35.463Z,102022.05
2019-02-08T11:40:38.528Z,102004.90
2019-02-08T11:43:41.590Z,102004.45
2019-02-08T11:46:44.750Z,101987.31
2019-02-08T11:49:47.849Z,101985.86
2019-02-08T11:52:50.951Z,101982.19
2019-02-08T11:55:54.122Z,101976.75
2019-02-08T11:58:57.215Z,101962.71
2019-02-08T12:02:00.309Z,101964.58
2019-02-08T12:05:03.435Z,101956.67
2019-02-08T12:08:06.607Z,101951.32
2019-02-08T12:11:09.798Z,101945.58
2019-02-08T12:14:12.923Z,101936.88
2019-02-08T12:17:16.088Z,101939.32
2019-02-08T12:20:19.183Z,101928.01
2019-02-08T12:23:22.375Z,101921.01
2019-02-08T12:26:25.468Z,101926.30
2019-02-08T12:29:28.571Z,101930.98
2019-02-08T12:32:31.743Z,101926.03
2019-02-08T12:35:34.928Z,101921.43
2019-02-08T12:38:38.036Z,101921.59
2019-02-08T12:41:41.557Z,101924.76
2019-02-08T12:44:44.631Z,101917.47
2019-02-08T12:47:47.707Z,101914.54
2019-02-08T12:50:51.068Z,101908.57
2019-02-08T12:53:54.198Z,101896.22
2019-02-08T12:56:57.311Z,101887.20
2019-02-08T13:00:00.478Z,101890.39
2019-02-08T13:03:03.580Z,101878.46
2019-02-08T13:06:06.672Z,101886.74
2019-02-08T13:09:11.006Z,101880.82
2019-02-08T13:12:14.512Z,101861.38
2019-02-08T13:15:17.227Z,101857.99
2019-02-08T13:18:20.303Z,101856.10
2019-02-08T13:21:23.463Z,101844.85
2019-02-08T13:24:26.559Z,101847.39
2019-02-08T13:27:29.652Z,101843.05
2019-02-08T13:30:32.743Z,101839.52
2019-02-08T13:33:35.847Z,101830.40
2019-02-08T13:36:39.031Z,101821.03
2019-02-08T13:39:42.122Z,101818.62
2019-02-08T13:42:45.211Z,101827.69
2019-02-08T13:45:48.308Z,101825.18
2019-02-08T13:48:51.400Z,101820.06
2019-02-08T13:51:54.496Z,101819.95
2019-02-08T13:54:57.590Z,101818.76
2019-02-08T13:58:00.676Z,101813.95
2019-02-08T14:01:03.754Z,101812.22
2019-02-08T14:04:06.884Z,101814.41
2019-02-08T14:07:10.048Z,101811.27
2019-02-08T14:10:14.311Z,101819.53
2019-02-08T14:13:17.469Z,101803.59
2019-02-08T14:16:20.575Z,101803.53
2019-02-08T14:19:23.649Z,101804.89
2019-02-08T14:22:26.757Z,101799.25
2019-02-08T14:25:29.814Z,101803.77
2019-02-08T14:28:32.927Z,101798.58
2019-02-08T14:31:36.023Z,101797.37
2019-02-08T14:34:43.708Z,101792.48
2019-02-08T14:37:42.227Z,101784.79
2019-02-08T14:40:45.307Z,101772.67
2019-02-08T14:43:48.375Z,101767.21
2019-02-08T14:46:51.480Z,101767.64
2019-02-08T14:49:54.600Z,101765.80
2019-02-08T14:52:57.775Z,101755.88
2019-02-08T14:56:00.955Z,101752.47
2019-02-08T14:59:04.050Z,101754.37
2019-02-08T15:02:07.139Z,101753.80
2019-02-08T15:05:10.872Z,101750.36
2019-02-08T15:08:14.056Z,101744.68
2019-02-08T15:11:17.123Z,101738.17
2019-02-08T15:14:20.247Z,101730.96
2019-02-08T15:17:23.334Z,101736.78
2019-02-08T15:20:28.517Z,101724.75
2019-02-08T15:23:31.664Z,101725.77
2019-02-08T15:26:34.737Z,101720.77
2019-02-08T15:29:37.856Z,101726.17
2019-02-08T15:32:41.036Z,101726.05
2019-02-08T15:35:44.112Z,101724.89
2019-02-08T15:38:47.421Z,101725.41
2019-02-08T15:41:50.629Z,101722.41
2019-02-08T15:44:53.810Z,101726.88
2019-02-08T15:47:57.000Z,101719.88
2019-02-08T15:51:00.102Z,101708.46
2019-02-08T15:54:03.819Z,101708.06
2019-02-08T15:57:06.675Z,101710.12
2019-02-08T16:00:10.688Z,101708.13
2019-02-08T16:03:13.800Z,101701.59
2019-02-08T16:06:16.863Z,101702.60
2019-02-08T16:09:19.928Z,101701.99
2019-02-08T16:12:23.006Z,101702.18
2019-02-08T16:15:27.056Z,101704.11
2019-02-08T16:18:30.199Z,101703.57
2019-02-08T16:21:33.373Z,101704.27
2019-02-08T16:24:36.470Z,101691.91
2019-02-08T16:27:40.143Z,101693.67
2019-02-08T16:30:42.807Z,101687.46
2019-02-08T16:33:45.911Z,101681.10
2019-02-08T16:36:48.986Z,101682.37
2019-02-08T16:39:52.066Z,101678.84
2019-02-08T16:42:55.210Z,101678.63
2019-02-08T16:45:58.319Z,101680.38
2019-02-08T16:49:01.410Z,101671.44
2019-02-08T16:52:04.496Z,101672.65
2019-02-08T16:55:08.800Z,101670.72
2019-02-08T16:58:11.931Z,101666.95
2019-02-08T17:01:15.993Z,101665.87
2019-02-08T17:04:19.120Z,101674.06
2019-02-08T17:07:22.215Z,101671.83
2019-02-08T17:10:25.286Z,101666.78
2019-02-08T17:13:28.379Z,101666.44
2019-02-08T17:16:31.472Z,101661.86
2019-02-08T17:19:34.543Z,101659.07
2019-02-08T17:22:37.669Z,101655.84
2019-02-08T17:25:40.871Z,101647.53
2019-02-08T17:28:43.956Z,101640.95
2019-02-08T17:31:47.048Z,101638.80
2019-02-08T17:34:50.151Z,101632.25
2019-02-08T17:37:53.242Z,101632.04
2019-02-08T17:40:56.311Z,101621.30
2019-02-08T17:43:59.407Z,101630.48
2019-02-08T17:47:02.537Z,101629.91
2019-02-08T17:50:06.047Z,101628.49
2019-02-08T17:53:09.246Z,101630.79
2019-02-08T17:56:12.391Z,101621.84
2019-02-08T17:59:15.487Z,101621.93
2019-02-08T18:02:18.583Z,101625.43
2019-02-08T18:05:21.670Z,101624.67
2019-02-08T18:08:24.738Z,101619.42
2019-02-08T18:11:27.854Z,101610.41
2019-02-08T18:14:30.956Z,101611.30
2019-02-08T18:17:34.054Z,101614.43
2019-02-08T18:20:39.528Z,101613.24
2019-02-08T18:23:42.699Z,101608.32
2019-02-08T18:26:45.863Z,101606.43
2019-02-08T18:29:48.999Z,101601.97
2019-02-08T18:32:52.170Z,101609.17
2019-02-08T18:35:55.260Z,101603.10
2019-02-08T18:38:58.360Z,101601.67
2019-02-08T18:42:01.439Z,101595.60
2019-02-08T18:45:05.298Z,101589.78
2019-02-08T18:48:08.452Z,101589.23
2019-02-08T18:51:11.567Z,101583.79
2019-02-08T18:54:14.723Z,101569.40
2019-02-08T18:57:17.811Z,101563.53
2019-02-08T19:00:23.252Z,101566.36
2019-02-08T19:03:26.323Z,101560.00
2019-02-08T19:06:29.625Z,101557.34
2019-02-08T19:09:32.747Z,101556.72
2019-02-08T19:12:35.835Z,101551.64
2019-02-08T19:15:38.948Z,101551.78
2019-02-08T19:18:42.133Z,101550.44
2019-02-08T19:21:45.208Z,101544.30
2019-02-08T19:24:48.333Z,101537.88
2019-02-08T19:27:51.420Z,101529.04
2019-02-08T19:30:54.514Z,101526.31
2019-02-08T19:33:57.691Z,101520.29
2019-02-08T19:37:00.786Z,101528.30
2019-02-08T19:40:05.453Z,101520.31
2019-02-08T19:43:08.531Z,101521.35
2019-02-08T19:46:11.606Z,101522.70
2019-02-08T19:49:14.696Z,101515.96
2019-02-08T19:52:17.771Z,101512.20
2019-02-08T19:55:20.883Z,101507.41
2019-02-08T19:58:23.979Z,101499.51
2019-02-08T20:01:27.159Z,101490.50
2019-02-08T20:04:30.357Z,101492.94
2019-02-08T20:07:34.562Z,101493.54
2019-02-08T20:10:38.603Z,101486.81
2019-02-08T20:13:41.667Z,101476.49
2019-02-08T20:16:44.737Z,101479.81
2019-02-08T20:19:47.808Z,101482.29
2019-02-08T20:22:50.971Z,101480.27
2019-02-08T20:25:54.063Z,101481.57
2019-02-08T20:28:57.217Z,101476.93
2019-02-08T20:32:00.250Z,101466.58
2019-02-08T20:35:03.452Z,101464.98
2019-02-08T20:38:07.592Z,101457.16
2019-02-08T20:41:10.808Z,101448.96
2019-02-08T20:44:13.950Z,101445.94
2019-02-08T20:47:17.057Z,101437.88
2019-02-08T20:50:20.637Z,101430.19
2019-02-08T20:53:23.722Z,101434.35
2019-02-08T20:56:26.813Z,101422.62
2019-02-08T20:59:29.905Z,101417.22
2019-02-08T21:02:34.007Z,101417.63
2019-02-08T21:05:37.125Z,101406.34
2019-02-08T21:08:40.203Z,101402.35
2019-02-08T21:11:43.305Z,101397.30
2019-02-08T21:14:46.403Z,101400.96
2019-02-08T21:17:49.476Z,101404.42
2019-02-08T21:20:52.591Z,101404.97
2019-02-08T21:23:55.691Z,101397.06
2019-02-08T21:26:58.757Z,101398.68
2019-02-08T21:30:01.858Z,101398.40
2019-02-08T21:33:05.756Z,101404.01
2019-02-08T21:36:08.872Z,101397.30
2019-02-08T21:39:12.051Z,101393.69
2019-02-08T21:42:15.101Z,101391.05
2019-02-08T21:45:20.444Z,101394.56
2019-02-08T21:48:23.587Z,101385.65
2019-02-08T21:51:26.673Z,101396.11
2019-02-08T21:54:29.769Z,101391.27
2019-02-08T21:57:33.231Z,101387.77
2019-02-08T22:00:37.592Z,101384.88
2019-02-08T22:03:40.683Z,101376.92
2019-02-08T22:06:43.904Z,101379.59
2019-02-08T22:09:47.074Z,101370.37
2019-02-08T22:12:50.175Z,101362.09
2019-02-08T22:15:53.340Z,101369.33
2019-02-08T22:18:56.464Z,101379.72
2019-02-08T22:21:59.652Z,101377.65
2019-02-08T22:25:02.730Z,101373.18
2019-02-08T22:28:05.839Z,101371.15
2019-02-08T22:31:09.003Z,101373.85
2019-02-08T22:34:13.023Z,101370.42
2019-02-08T22:37:16.084Z,101360.70
2019-02-08T22:40:19.803Z,101363.72
2019-02-08T22:43:22.873Z,101364.48
2019-02-08T22:46:26.012Z,101365.44
2019-02-08T22:49:29.091Z,101370.57
2019-02-08T22:52:32.183Z,101362.82
2019-02-08T22:55:35.303Z,101362.53
2019-02-08T22:58:38.475Z,101362.90
2019-02-08T23:01:44.707Z,101358.03
2019-02-08T23:04:47.831Z,101352.30
2019-02-08T23:07:50.928Z,101348.84
2019-02-08T23:10:54.021Z,101339.98
2019-02-08T23:13:57.120Z,101333.50
2019-02-08T23:17:00.212Z,101326.04
2019-02-08T23:20:03.360Z,101321.61
2019-02-08T23:23:06.451Z,101317.11
2019-02-08T23:26:09.588Z,101314.61
2019-02-08T23:29:12.711Z,101311.16
2019-02-08T23:32:15.880Z,101314.17
2019-02-08T23:35:18.960Z,101315.73
2019-02-08T23:38:22.031Z,101308.35
2019-02-08T23:41:25.153Z,101308.87
2019-02-08T23:44:28.235Z,101315.77
2019-02-08T23:47:31.287Z,101305.07
2019-02-08T23:50:34.402Z,101292.58
2019-02-08T23:53:37.494Z,101292.71
2019-02-08T23:56:40.600Z,101291.83
2019-02-08T23:59:43.683Z,101296.49
